Time;durP1;ratioP1;P1;durP2;ratioP2;P2;SDS_P1;SDS_P2;PMS_P1;PMS_P2;Temp;Humidity;BMP_temperature;BMP_pressure;BME280_temperature;BME280_humidity;BME280_pressure;Samples;Min_cycle;Max_cycle;Signal;HPM_P1;HPM_P2
2021/11/16 00:02:17;;;;;;;30.63;18.20;;;;;;;7.37;100.00;98653.59;5058177;28;20212;-62
2021/11/16 00:04:43;;;;;;;29.27;17.30;;;;;;;7.38;100.00;98659.72;5061697;28;20332;-62
2021/11/16 00:07:11;;;;;;;31.80;18.07;;;;;;;7.41;100.00;98665.66;5060394;28;20227;-62
2021/11/16 00:09:38;;;;;;;29.70;17.47;;;;;;;7.42;100.00;98664.75;5058235;28;20274;-62
2021/11/16 00:12:05;;;;;;;32.07;18.33;;;;;;;7.44;100.00;98671.63;5058471;28;20215;-62
2021/11/16 00:14:31;;;;;;;31.17;17.60;;;;;;;7.46;100.00;98666.28;5059827;28;20214;-62
2021/11/16 00:17:00;;;;;;;28.13;17.83;;;;;;;7.45;100.00;98673.34;5060612;28;20223;-62
2021/11/16 00:19:27;;;;;;;30.20;17.57;;;;;;;7.47;100.00;98670.63;5058501;28;20220;-62
2021/11/16 00:21:56;;;;;;;25.70;16.23;;;;;;;7.44;100.00;98665.50;5058156;28;20686;-62
2021/11/16 00:24:35;;;;;;;27.47;17.23;;;;;;;7.46;100.00;98666.28;5061386;28;20245;-62
2021/11/16 00:27:01;;;;;;;28.00;16.53;;;;;;;7.43;100.00;98666.44;5058361;28;20216;-62
2021/11/16 00:29:28;;;;;;;27.37;16.80;;;;;;;7.42;100.00;98662.13;5058326;28;20236;-62
2021/11/16 00:31:54;;;;;;;30.37;16.67;;;;;;;7.37;100.00;98664.09;5058440;28;20215;-62
2021/11/16 00:34:22;;;;;;;27.17;15.80;;;;;;;7.38;100.00;98664.97;5061752;28;20695;-62
2021/11/16 00:36:49;;;;;;;26.10;16.00;;;;;;;7.37;100.00;98669.34;5058944;28;20226;-62
2021/11/16 00:39:15;;;;;;;25.37;15.67;;;;;;;7.38;100.00;98666.66;5056672;28;20211;-62
2021/11/16 00:41:42;;;;;;;25.20;15.37;;;;;;;7.40;100.00;98669.19;5058366;28;20216;-62
2021/11/16 00:44:09;;;;;;;26.53;16.10;;;;;;;7.40;100.00;98675.31;5051492;28;20230;-62
2021/11/16 00:46:36;;;;;;;26.30;16.43;;;;;;;7.38;100.00;98671.06;5059250;28;20214;-62
2021/11/16 00:49:03;;;;;;;28.47;17.37;;;;;;;7.36;100.00;98671.13;5049765;28;20246;-62
2021/11/16 00:51:31;;;;;;;26.90;16.20;;;;;;;7.36;100.00;98678.19;5058083;28;20219;-62
2021/11/16 00:53:57;;;;;;;28.97;16.97;;;;;;;7.32;100.00;98671.34;5051196;28;20234;-62
2021/11/16 00:56:24;;;;;;;30.30;17.00;;;;;;;7.29;100.00;98676.78;5059530;28;20221;-62
2021/11/16 00:58:50;;;;;;;28.07;17.03;;;;;;;7.27;100.00;98672.50;5058001;28;20220;-62
2021/11/16 01:01:17;;;;;;;33.07;18.47;;;;;;;7.29;100.00;98682.03;5058085;28;20234;-62
2021/11/16 01:03:43;;;;;;;30.03;17.93;;;;;;;7.31;100.00;98677.53;5055693;28;20218;-62
2021/11/16 01:06:10;;;;;;;29.60;17.63;;;;;;;7.29;100.00;98676.78;5058282;28;20221;-62
2021/11/16 01:08:38;;;;;;;30.87;18.43;;;;;;;7.29;100.00;98676.78;5057936;28;20246;-62
2021/11/16 01:11:04;;;;;;;30.20;17.63;;;;;;;7.28;100.00;98672.44;5057839;28;20681;-62
2021/11/16 01:13:31;;;;;;;27.17;17.10;;;;;;;7.28;100.00;98680.34;5064349;28;20215;-62
2021/11/16 01:15:58;;;;;;;31.03;17.93;;;;;;;7.33;100.00;98678.31;5063831;28;20707;-62
2021/11/16 01:18:26;;;;;;;31.73;18.50;;;;;;;7.27;100.00;98678.59;5061631;28;20242;-62
2021/11/16 01:20:54;;;;;;;31.07;18.60;;;;;;;7.28;100.00;98675.06;5061564;28;20216;-62
2021/11/16 01:23:22;;;;;;;32.23;18.13;;;;;;;7.26;100.00;98676.06;5064184;28;20696;-62
2021/11/16 01:25:50;;;;;;;34.53;19.00;;;;;;;7.30;100.00;98683.72;5063499;28;20218;-62
2021/11/16 01:28:23;;;;;;;29.73;18.30;;;;;;;7.32;100.00;98681.88;5061103;28;20242;-62
2021/11/16 01:30:52;;;;;;;27.97;16.30;;;;;;;7.26;100.00;98679.53;5060341;28;20216;-62
2021/11/16 01:33:27;;;;;;;29.33;17.83;;;;;;;7.25;100.00;98675.19;5054603;28;20269;-62
2021/11/16 01:35:54;;;;;;;28.33;17.33;;;;;;;7.18;100.00;98677.25;5061599;28;20373;-62
2021/11/16 01:38:23;;;;;;;29.10;17.13;;;;;;;7.18;100.00;98681.69;5061382;28;20217;-62
2021/11/16 01:40:51;;;;;;;28.47;17.77;;;;;;;7.20;100.00;98674.56;5062177;28;20299;-62
2021/11/16 01:43:18;;;;;;;29.40;17.63;;;;;;;7.22;100.00;98670.09;5064990;28;20214;-62
2021/11/16 01:45:45;;;;;;;29.30;16.87;;;;;;;7.21;100.00;98672.81;5058668;28;20588;-62
2021/11/16 01:48:13;;;;;;;29.13;17.03;;;;;;;7.21;100.00;98671.00;5061177;28;20235;-62
2021/11/16 01:50:42;;;;;;;28.30;17.40;;;;;;;7.22;100.00;98679.75;5061985;28;20266;-62
2021/11/16 01:53:08;;;;;;;27.10;16.77;;;;;;;7.23;100.00;98666.53;5064886;28;20219;-62
2021/11/16 01:55:35;;;;;;;27.80;17.67;;;;;;;7.22;100.00;98670.94;5063782;28;20582;-62
2021/11/16 01:58:03;;;;;;;26.87;16.97;;;;;;;7.22;100.00;98665.69;5059515;28;20226;-62
2021/11/16 02:00:32;;;;;;;28.83;17.23;;;;;;;7.28;100.00;98675.06;5061868;28;20215;-62
2021/11/16 02:02:59;;;;;;;32.03;17.77;;;;;;;7.28;100.00;98668.94;5064611;28;20214;-62
2021/11/16 02:05:36;;;;;;;29.67;17.30;;;;;;;7.26;100.00;98671.63;5058452;28;20238;-62
2021/11/16 02:08:04;;;;;;;27.43;16.70;;;;;;;7.21;100.00;98678.88;5060883;28;20590;-63
2021/11/16 02:10:30;;;;;;;27.93;16.60;;;;;;;7.16;100.00;98680.91;5062891;28;20247;-64
2021/11/16 02:12:57;;;;;;;28.90;17.13;;;;;;;7.10;100.00;98670.69;5063468;28;20219;-62
2021/11/16 02:15:25;;;;;;;28.33;17.23;;;;;;;7.11;100.00;98682.03;5060882;28;20220;-62
2021/11/16 02:17:51;;;;;;;25.80;16.63;;;;;;;7.09;100.00;98663.69;5060884;28;20597;-62
2021/11/16 02:20:19;;;;;;;31.60;17.57;;;;;;;7.05;100.00;98662.16;5062958;28;20244;-61
2021/11/16 02:22:48;;;;;;;28.83;17.70;;;;;;;7.04;100.00;98655.19;5063054;28;20215;-62
2021/11/16 02:25:15;;;;;;;31.43;19.17;;;;;;;7.01;100.00;98659.75;5058470;28;20231;-62
2021/11/16 02:27:42;;;;;;;37.67;19.47;;;;;;;7.00;100.00;98653.63;5060320;28;20219;-62
2021/11/16 02:30:09;;;;;;;27.87;17.27;;;;;;;7.02;100.00;98656.19;5062487;28;20247;-62
2021/11/16 02:32:36;;;;;;;32.57;18.43;;;;;;;6.98;100.00;98655.47;5063243;28;20216;-62
2021/11/16 02:35:02;;;;;;;29.13;17.27;;;;;;;6.99;100.00;98644.03;5055750;28;20223;-62
2021/11/16 02:37:32;;;;;;;32.20;18.50;;;;;;;6.95;100.00;98647.72;5060324;28;20211;-62
2021/11/16 02:40:00;;;;;;;29.80;18.37;;;;;;;6.96;100.00;98645.97;5062435;28;20216;-62
2021/11/16 02:42:28;;;;;;;30.47;17.97;;;;;;;6.94;100.00;98647.78;5062651;28;20280;-62
2021/11/16 02:44:54;;;;;;;29.27;17.20;;;;;;;6.94;100.00;98643.41;5059842;28;20220;-62
2021/11/16 02:47:21;;;;;;;33.10;18.10;;;;;;;6.94;100.00;98643.41;5060090;28;21215;-62
2021/11/16 02:49:47;;;;;;;33.50;18.37;;;;;;;6.92;100.00;98632.13;5060388;28;20244;-62
2021/11/16 02:52:15;;;;;;;30.10;17.93;;;;;;;6.93;100.00;98636.44;5063136;28;20590;-62
2021/11/16 02:54:42;;;;;;;31.67;17.93;;;;;;;6.88;100.00;98635.81;5060040;28;20219;-62
2021/11/16 02:57:13;;;;;;;32.13;18.83;;;;;;;6.88;100.00;98638.44;5059692;28;20215;-62
2021/11/16 02:59:41;;;;;;;33.33;18.03;;;;;;;6.90;100.00;98641.00;5062025;28;20216;-62
2021/11/16 03:02:08;;;;;;;32.17;18.23;;;;;;;6.88;100.00;98632.31;5057489;28;20582;-62
2021/11/16 03:04:35;;;;;;;30.77;18.20;;;;;;;6.87;100.00;98627.97;5059598;28;20246;-62
2021/11/16 03:07:03;;;;;;;31.73;18.70;;;;;;;6.86;100.00;98628.91;5059781;28;20581;-62
2021/11/16 03:09:33;;;;;;;31.00;18.27;;;;;;;6.87;100.00;98630.63;5061725;28;20723;-62
2021/11/16 03:12:00;;;;;;;33.50;18.40;;;;;;;6.88;100.00;98638.44;5061530;28;20298;-62
2021/11/16 03:14:29;;;;;;;30.23;17.83;;;;;;;6.90;100.00;98639.19;5059240;28;20717;-62
2021/11/16 03:16:56;;;;;;;32.93;17.93;;;;;;;6.92;100.00;98640.00;5057933;28;20222;-62
2021/11/16 03:19:23;;;;;;;29.33;18.67;;;;;;;6.90;100.00;98639.19;5062510;28;20222;-62
2021/11/16 03:21:55;;;;;;;32.40;18.23;;;;;;;6.90;100.00;98631.31;5061417;28;20219;-62
2021/11/16 03:24:23;;;;;;;29.23;17.53;;;;;;;6.93;100.00;98632.97;5059082;28;20725;-62
2021/11/16 03:26:50;;;;;;;30.37;17.90;;;;;;;6.93;100.00;98636.44;5059453;28;20219;-62
2021/11/16 03:29:19;;;;;;;35.33;21.40;;;;;;;6.94;100.00;98632.03;5062398;28;20727;-62
2021/11/16 03:31:50;;;;;;;32.47;19.10;;;;;;;6.95;100.00;98621.44;5060301;28;20227;-62
2021/11/16 03:34:17;;;;;;;31.93;18.23;;;;;;;6.97;100.00;98627.47;5051450;28;20232;-62
2021/11/16 03:36:44;;;;;;;30.80;17.97;;;;;;;6.96;100.00;98625.78;5058888;28;20223;-62
2021/11/16 03:39:12;;;;;;;33.20;19.30;;;;;;;6.98;100.00;98623.94;5052688;28;20221;-62
2021/11/16 03:41:39;;;;;;;31.97;18.20;;;;;;;6.99;100.00;98623.03;5058062;28;20219;-62
2021/11/16 03:44:06;;;;;;;33.33;19.67;;;;;;;7.04;100.00;98618.41;5059078;28;20222;-63
2021/11/16 03:46:32;;;;;;;32.70;19.10;;;;;;;6.97;100.00;98616.13;5058804;28;20219;-62
2021/11/16 03:49:00;;;;;;;32.75;18.75;;;;;;;6.92;100.00;98624.25;5056738;28;20577;-61
2021/11/16 03:51:27;;;;;;;33.37;18.90;;;;;;;6.83;100.00;98614.13;5058650;28;20435;-63
2021/11/16 03:53:53;;;;;;;34.53;19.23;;;;;;;6.78;100.00;98625.81;5050895;28;20212;-62
2021/11/16 03:56:20;;;;;;;31.80;18.97;;;;;;;6.75;100.00;98626.78;5058522;28;20261;-62
2021/11/16 03:58:48;;;;;;;34.60;19.50;;;;;;;6.79;100.00;98623.06;5062277;28;20585;-62
2021/11/16 04:01:15;;;;;;;33.57;18.70;;;;;;;6.77;100.00;98624.09;5060093;28;20215;-62
2021/11/16 04:03:42;;;;;;;35.20;19.03;;;;;;;6.81;100.00;98629.13;5058287;28;20224;-62
2021/11/16 04:06:11;;;;;;;35.43;19.73;;;;;;;6.83;100.00;98626.44;5058677;28;20223;-62
2021/11/16 04:08:38;;;;;;;34.40;18.17;;;;;;;6.83;100.00;98619.41;5060554;28;20302;-62
2021/11/16 04:11:05;;;;;;;31.80;18.20;;;;;;;6.78;100.00;98615.28;5060003;28;20603;-62
2021/11/16 04:13:32;;;;;;;33.87;18.60;;;;;;;6.75;100.00;98615.41;5058508;28;20574;-62
2021/11/16 04:15:59;;;;;;;33.57;18.70;;;;;;;6.74;100.00;98614.59;5058559;28;20227;-62
2021/11/16 04:18:26;;;;;;;33.83;18.77;;;;;;;6.76;100.00;98612.72;5061739;28;20594;-62
2021/11/16 04:20:54;;;;;;;31.23;17.83;;;;;;;6.75;100.00;98607.53;5060228;28;20212;-60
2021/11/16 04:23:23;;;;;;;34.37;18.27;;;;;;;6.75;100.00;98612.78;5058141;28;20219;-60
2021/11/16 04:25:51;;;;;;;34.47;19.13;;;;;;;6.77;100.00;98609.19;5058142;28;20227;-61
2021/11/16 04:28:18;;;;;;;30.57;17.80;;;;;;;6.77;100.00;98611.78;5061492;28;20731;-61
2021/11/16 04:30:46;;;;;;;33.07;19.00;;;;;;;6.73;100.00;98612.03;5059596;28;20246;-61
2021/11/16 04:33:14;;;;;;;32.80;18.13;;;;;;;6.75;100.00;98611.03;5056602;28;20245;-61
2021/11/16 04:35:40;;;;;;;35.90;19.33;;;;;;;6.79;100.00;98604.69;5058332;28;20220;-61
2021/11/16 04:38:09;;;;;;;30.47;18.23;;;;;;;6.76;100.00;98602.22;5061701;28;20214;-61
2021/11/16 04:40:42;;;;;;;36.03;18.57;;;;;;;6.75;100.00;98600.53;5059797;28;20215;-61
2021/11/16 04:43:13;;;;;;;34.07;18.17;;;;;;;6.69;100.00;98600.81;5050761;28;20216;-61
2021/11/16 04:45:42;;;;;;;34.93;18.93;;;;;;;6.67;100.00;98597.41;5059032;28;20636;-61
2021/11/16 04:48:13;;;;;;;34.63;19.13;;;;;;;6.64;100.00;98602.78;5064800;28;20690;-61
2021/11/16 04:50:53;;;;;;;31.37;18.10;;;;;;;6.65;100.00;98593.97;5060030;28;20327;-61
2021/11/16 04:53:53;;;;;;;34.97;18.97;;;;;;;6.63;100.00;98595.84;5062346;28;20223;-62
2021/11/16 05:04:25;;;;;;;34.47;18.60;;;;;;;6.59;100.00;98612.66;5059136;28;20257;-61
2021/11/16 05:06:53;;;;;;;33.67;18.90;;;;;;;6.57;100.00;98617.13;5062057;28;20226;-61
2021/11/16 05:09:20;;;;;;;33.80;18.53;;;;;;;6.63;100.00;98615.97;5063279;28;20211;-61
2021/11/16 05:11:48;;;;;;;32.57;18.17;;;;;;;6.58;100.00;98613.56;5065779;28;20246;-61
2021/11/16 05:14:15;;;;;;;32.00;18.33;;;;;;;6.57;100.00;98617.13;5059623;28;20215;-61
2021/11/16 05:16:42;;;;;;;33.47;18.87;;;;;;;6.59;100.00;98620.53;5061960;28;20301;-61
2021/11/16 05:19:08;;;;;;;33.70;19.43;;;;;;;6.60;100.00;98616.97;5062826;28;20217;-61
2021/11/16 05:21:35;;;;;;;33.67;18.87;;;;;;;6.64;100.00;98620.31;5065508;28;20211;-61
2021/11/16 05:24:02;;;;;;;36.80;20.13;;;;;;;6.63;100.00;98627.34;5061902;28;20215;-61
2021/11/16 05:26:29;;;;;;;34.67;19.90;;;;;;;6.61;100.00;98623.94;5060083;28;20252;-61
2021/11/16 05:28:58;;;;;;;36.97;19.93;;;;;;;6.57;100.00;98621.50;5062017;28;20219;-61
2021/11/16 05:31:25;;;;;;;35.50;19.07;;;;;;;6.54;100.00;98621.66;5065083;28;20242;-61
2021/11/16 05:33:54;;;;;;;31.47;18.00;;;;;;;6.55;100.00;98624.22;5061467;28;20582;-61
2021/11/16 05:36:21;;;;;;;30.53;17.97;;;;;;;6.55;100.00;98626.84;5061282;28;20290;-61
2021/11/16 05:38:48;;;;;;;31.27;17.30;;;;;;;6.55;100.00;98624.22;5062564;28;20223;-61
2021/11/16 05:41:15;;;;;;;34.23;18.07;;;;;;;6.54;100.00;98633.00;5065252;28;20234;-61
2021/11/16 05:43:44;;;;;;;31.77;17.73;;;;;;;6.56;100.00;98628.56;5061302;28;20223;-61
2021/11/16 05:46:12;;;;;;;34.67;18.93;;;;;;;6.56;100.00;98630.31;5061080;28;20212;-61
2021/11/16 05:48:40;;;;;;;35.67;18.77;;;;;;;6.60;100.00;98627.47;5062497;28;20218;-61
2021/11/16 05:51:08;;;;;;;34.27;19.10;;;;;;;6.55;100.00;98629.47;5063318;28;20618;-61
2021/11/16 05:53:37;;;;;;;31.30;17.97;;;;;;;6.55;100.00;98634.75;5060972;28;20216;-61
2021/11/16 05:56:04;;;;;;;31.80;18.67;;;;;;;6.51;100.00;98630.53;5061174;28;20272;-61
2021/11/16 05:58:31;;;;;;;38.13;18.93;;;;;;;6.50;100.00;98631.47;5062252;28;20230;-61
2021/11/16 06:00:57;;;;;;;32.73;19.00;;;;;;;6.49;100.00;98628.91;5064380;28;20225;-61
2021/11/16 06:03:25;;;;;;;40.13;19.73;;;;;;;6.48;100.00;98627.19;5060906;28;20219;-61
2021/11/16 06:05:52;;;;;;;36.10;20.00;;;;;;;6.50;100.00;98620.09;5060753;28;20251;-61
2021/11/16 06:08:23;;;;;;;32.47;18.73;;;;;;;6.49;100.00;98629.75;5062023;28;20222;-61
2021/11/16 06:10:50;;;;;;;37.33;19.13;;;;;;;6.49;100.00;98635.00;5063758;28;20708;-62
2021/11/16 06:13:17;;;;;;;34.57;18.77;;;;;;;6.55;100.00;98629.47;5060716;28;20223;-62
2021/11/16 06:15:43;;;;;;;34.40;18.97;;;;;;;6.54;100.00;98626.91;5060831;28;20238;-62
2021/11/16 06:18:10;;;;;;;36.30;19.07;;;;;;;6.50;100.00;98630.59;5060253;28;20212;-62
2021/11/16 06:20:40;;;;;;;34.63;19.07;;;;;;;6.48;100.00;98630.66;5064350;28;20223;-62
2021/11/16 06:23:09;;;;;;;34.20;19.20;;;;;;;6.49;100.00;98634.16;5058330;28;20222;-62
2021/11/16 06:25:36;;;;;;;33.57;17.53;;;;;;;6.47;100.00;98636.84;5060615;28;20218;-61
2021/11/16 06:28:02;;;;;;;33.77;17.60;;;;;;;6.45;100.00;98640.44;5062091;28;20594;-62
2021/11/16 06:30:29;;;;;;;30.07;16.63;;;;;;;6.39;100.00;98649.47;5063837;28;20243;-61
2021/11/16 06:32:55;;;;;;;29.37;16.20;;;;;;;6.39;100.00;98651.22;5060198;28;20727;-63
2021/11/16 06:35:22;;;;;;;32.40;17.13;;;;;;;6.38;100.00;98657.41;5060494;28;20212;-60
2021/11/16 06:37:52;;;;;;;30.50;17.50;;;;;;;6.37;100.00;98656.56;5061253;28;20229;-62
2021/11/16 06:40:18;;;;;;;29.63;16.43;;;;;;;6.40;100.00;98655.56;5063592;28;20226;-62
2021/11/16 06:42:47;;;;;;;31.40;17.40;;;;;;;6.41;100.00;98652.84;5060326;28;20298;-62
2021/11/16 06:45:13;;;;;;;30.17;17.27;;;;;;;6.42;100.00;98654.56;5058817;28;20216;-62
2021/11/16 06:47:40;;;;;;;30.73;17.40;;;;;;;6.43;100.00;98656.28;5061422;28;20226;-62
2021/11/16 06:50:07;;;;;;;33.10;17.63;;;;;;;6.38;100.00;98660.88;5063718;28;20218;-62
2021/11/16 06:52:36;;;;;;;30.57;17.20;;;;;;;6.32;100.00;98661.16;5057750;28;20220;-62
2021/11/16 06:55:05;;;;;;;27.13;15.67;;;;;;;6.35;100.00;98658.38;5060106;28;20229;-62
2021/11/16 06:57:33;;;;;;;30.10;15.47;;;;;;;6.37;100.00;98658.31;5061485;28;20243;-62
2021/11/16 06:59:59;;;;;;;29.70;16.07;;;;;;;6.39;100.00;98659.97;5063441;28;20222;-59
2021/11/16 07:02:27;;;;;;;30.40;16.50;;;;;;;6.42;100.00;98666.84;5055392;28;20667;-59
2021/11/16 07:04:54;;;;;;;28.70;16.07;;;;;;;6.40;100.00;98666.91;5059412;28;20242;-59
2021/11/16 07:07:21;;;;;;;26.37;15.40;;;;;;;6.44;100.00;98665.88;5061102;28;20215;-59
2021/11/16 07:09:47;;;;;;;26.57;15.03;;;;;;;6.43;100.00;98661.53;5060940;28;20218;-59
2021/11/16 07:12:19;;;;;;;26.03;14.93;;;;;;;6.45;100.00;98659.69;5059186;28;20250;-61
2021/11/16 07:14:47;;;;;;;26.03;14.57;;;;;;;6.45;100.00;98664.06;5059841;28;20222;-62
2021/11/16 07:17:15;;;;;;;28.43;15.07;;;;;;;6.44;100.00;98667.63;5059663;28;20226;-62
2021/11/16 07:19:44;;;;;;;26.77;15.07;;;;;;;6.46;100.00;98666.66;5059555;28;20595;-62
2021/11/16 07:22:13;;;;;;;24.40;14.03;;;;;;;6.45;100.00;98666.69;5059474;28;20612;-62
2021/11/16 07:24:43;;;;;;;24.83;14.13;;;;;;;6.44;100.00;98668.50;5059248;28;20604;-62
2021/11/16 07:27:10;;;;;;;24.43;14.27;;;;;;;6.43;100.00;98671.19;5062149;28;20219;-62
2021/11/16 07:29:42;;;;;;;25.70;14.90;;;;;;;6.46;100.00;98676.28;5061806;28;20218;-62
2021/11/16 07:32:12;;;;;;;25.77;14.50;;;;;;;6.47;100.00;98683.25;5058909;28;20716;-62
2021/11/16 07:34:40;;;;;;;27.07;15.43;;;;;;;6.49;100.00;98687.53;5059235;28;20220;-62
2021/11/16 07:37:10;;;;;;;22.90;13.50;;;;;;;6.50;100.00;98683.13;5060842;28;20681;-62
2021/11/16 07:39:50;;;;;;;24.27;13.33;;;;;;;6.51;100.00;98690.94;5060310;28;20237;-62
2021/11/16 07:42:18;;;;;;;22.80;13.57;;;;;;;6.57;100.00;98690.66;5059192;28;20219;-62
2021/11/16 07:47:45;;;;;;;25.80;13.97;;;;;;;6.63;100.00;98692.16;5090321;27;20559;-61
2021/11/16 07:50:18;;;;;;;21.70;13.10;;;;;;;6.64;100.00;98692.09;5090563;28;20211;-61
2021/11/16 07:52:45;;;;;;;24.83;14.87;;;;;;;6.67;100.00;98694.59;5090204;28;20221;-61
2021/11/16 07:55:24;;;;;;;22.27;13.00;;;;;;;6.74;100.00;98693.38;5090446;28;20213;-61
2021/11/16 07:57:51;;;;;;;19.27;12.50;;;;;;;6.80;100.00;98693.13;5082783;28;20217;-61
2021/11/16 08:00:21;;;;;;;18.13;12.17;;;;;;;6.83;100.00;98690.34;5090454;28;20219;-61
2021/11/16 08:02:55;;;;;;;21.27;12.03;;;;;;;6.91;100.00;98695.25;5088716;28;20550;-61
2021/11/16 08:05:40;;;;;;;19.23;12.07;;;;;;;6.92;100.00;98689.06;5088168;28;20243;-62
2021/11/16 08:08:34;;;;;;;20.13;11.97;;;;;;;6.98;100.00;98697.53;5090316;28;20214;-61
2021/11/16 08:11:10;;;;;;;20.20;11.67;;;;;;;7.03;100.00;98694.69;5087516;28;20253;-61
2021/11/16 08:13:36;;;;;;;17.63;11.63;;;;;;;6.99;100.00;98695.75;5079140;28;20549;-61
2021/11/16 08:16:07;;;;;;;16.83;10.60;;;;;;;7.03;100.00;98694.69;5086536;28;20218;-61
2021/11/16 08:18:44;;;;;;;16.57;10.30;;;;;;;7.09;100.00;98682.09;5087615;28;20234;-61
2021/11/16 08:21:12;;;;;;;17.63;10.60;;;;;;;7.12;100.00;98696.88;5086521;28;20217;-61
2021/11/16 08:23:50;;;;;;;16.17;10.47;;;;;;;7.12;100.00;98700.38;5073167;28;20277;-61
2021/11/16 08:26:18;;;;;;;18.47;11.33;;;;;;;7.09;100.00;98700.50;5087732;28;20245;-61
2021/11/16 08:30:29;;;;;;;17.27;11.00;;;;;;;7.14;100.00;98698.50;5149444;27;20716;-61
2021/11/16 08:32:59;;;;;;;18.13;12.60;;;;;;;7.14;100.00;98703.75;5149615;27;20693;-60
2021/11/16 08:35:26;;;;;;;21.83;12.30;;;;;;;7.17;100.00;98701.00;5149799;27;20232;-61
2021/11/16 08:38:00;;;;;;;21.53;12.03;;;;;;;7.19;100.00;98707.03;5149176;27;20204;-61
2021/11/16 08:40:29;;;;;;;19.73;12.07;;;;;;;7.21;100.00;98705.19;5149999;27;20211;-61
2021/11/16 08:42:58;;;;;;;19.50;11.70;;;;;;;7.23;100.00;98703.34;5149360;27;20208;-60
2021/11/16 08:45:28;;;;;;;21.30;12.37;;;;;;;7.25;100.00;98701.50;5148561;27;20254;-60
2021/11/16 08:48:05;;;;;;;21.07;12.20;;;;;;;7.23;100.00;98700.72;5149910;27;20217;-60
2021/11/16 08:50:33;;;;;;;21.27;11.73;;;;;;;7.22;100.00;98696.41;5150216;27;20212;-62
2021/11/16 08:53:02;;;;;;;18.07;11.20;;;;;;;7.25;100.00;98706.75;5148587;27;20216;-61
2021/11/16 08:55:33;;;;;;;20.67;11.90;;;;;;;7.27;100.00;98715.41;5147857;27;20577;-60
2021/11/16 08:58:01;;;;;;;19.13;11.67;;;;;;;7.24;100.00;98712.94;5149595;27;20208;-60
2021/11/16 09:00:30;;;;;;;19.93;11.50;;;;;;;7.26;100.00;98710.25;5148578;27;20585;-60
2021/11/16 09:03:06;;;;;;;20.40;12.20;;;;;;;7.30;100.00;98707.41;5149146;27;20299;-60
2021/11/16 09:05:36;;;;;;;17.70;11.07;;;;;;;7.33;100.00;98709.84;5149056;27;20220;-60
2021/11/16 09:08:07;;;;;;;19.20;12.60;;;;;;;7.36;100.00;98712.38;5148620;27;20205;-61
2021/11/16 09:10:36;;;;;;;21.37;12.07;;;;;;;7.40;100.00;98711.28;5149188;27;20236;-61
2021/11/16 09:13:05;;;;;;;19.60;11.13;;;;;;;7.42;100.00;98714.72;5144910;27;20212;-63
2021/11/16 09:15:35;;;;;;;17.37;10.10;;;;;;;7.41;100.00;98713.00;5148715;27;20236;-61
2021/11/16 09:18:17;;;;;;;18.13;11.13;;;;;;;7.41;100.00;98702.50;5148894;27;20222;-61
2021/11/16 09:20:45;;;;;;;18.90;11.73;;;;;;;7.40;100.00;98708.66;5145628;27;20220;-61
2021/11/16 09:23:23;;;;;;;16.93;10.93;;;;;;;7.42;100.00;98704.19;5145088;27;20205;-61
2021/11/16 09:25:52;;;;;;;19.37;10.60;;;;;;;7.39;100.00;98699.91;5138360;27;20299;-61
2021/11/16 09:28:34;;;;;;;18.67;11.07;;;;;;;7.39;100.00;98705.19;5149236;27;20223;-60
2021/11/16 09:31:01;;;;;;;19.13;10.80;;;;;;;7.38;100.00;98699.16;5147531;27;20205;-61
2021/11/16 09:33:36;;;;;;;18.47;11.20;;;;;;;7.38;100.00;98702.63;5148510;27;20579;-61
2021/11/16 09:36:02;;;;;;;18.13;10.30;;;;;;;7.40;100.00;98698.13;5147996;27;20261;-61
2021/11/16 09:38:45;;;;;;;19.23;11.40;;;;;;;7.40;100.00;98700.75;5148822;27;20224;-61
2021/11/16 09:41:16;;;;;;;19.87;11.60;;;;;;;7.44;100.00;98702.31;5129749;27;20592;-62
2021/11/16 09:43:43;;;;;;;19.67;11.70;;;;;;;7.48;100.00;98693.38;5133798;27;20221;-61
2021/11/16 09:46:14;;;;;;;17.97;10.33;;;;;;;7.48;100.00;98690.75;5134846;27;20229;-61
2021/11/16 09:48:42;;;;;;;18.57;11.03;;;;;;;7.48;100.00;98694.22;5132911;27;20677;-61
2021/11/16 09:51:13;;;;;;;16.80;10.20;;;;;;;7.49;100.00;98700.34;5133723;27;20221;-61
2021/11/16 09:53:40;;;;;;;17.00;10.50;;;;;;;7.48;100.00;98709.16;5134176;27;20225;-61
2021/11/16 09:56:25;;;;;;;16.87;10.20;;;;;;;7.47;100.00;98707.44;5134328;27;20220;-62
2021/11/16 09:58:53;;;;;;;18.00;11.33;;;;;;;7.45;100.00;98698.75;5125756;27;20244;-61
2021/11/16 10:01:22;;;;;;;19.67;10.73;;;;;;;7.45;100.00;98706.66;5134651;27;20231;-62
2021/11/16 10:03:52;;;;;;;19.60;11.37;;;;;;;7.45;100.00;98704.03;5134501;27;20209;-62
2021/11/16 10:06:18;;;;;;;17.50;10.33;;;;;;;7.45;100.00;98698.75;5134806;27;20640;-61
2021/11/16 10:08:45;;;;;;;18.03;10.83;;;;;;;7.45;100.00;98704.03;5134904;27;20209;-61
2021/11/16 10:11:12;;;;;;;18.50;10.53;;;;;;;7.43;100.00;98696.22;5134864;27;20695;-61
2021/11/16 10:13:38;;;;;;;16.73;10.27;;;;;;;7.45;100.00;98688.25;5133169;27;20214;-63
2021/11/16 10:16:07;;;;;;;18.67;10.47;;;;;;;7.47;100.00;98681.16;5134957;27;20585;-61
2021/11/16 10:18:37;;;;;;;17.40;10.37;;;;;;;7.46;100.00;98684.69;5135013;27;20221;-61
2021/11/16 10:21:07;;;;;;;15.87;9.27;;;;;;;7.48;100.00;98683.69;5134757;27;20242;-61
2021/11/16 10:23:35;;;;;;;17.97;9.97;;;;;;;7.52;100.00;98684.38;5132242;27;20224;-63
2021/11/16 10:26:04;;;;;;;17.20;10.13;;;;;;;7.54;100.00;98678.13;5134701;27;20672;-61
2021/11/16 10:28:32;;;;;;;16.57;9.50;;;;;;;7.58;100.00;98678.84;5134803;27;20236;-60
2021/11/16 10:30:59;;;;;;;18.57;10.20;;;;;;;7.61;100.00;98678.69;5134770;27;20239;-60
2021/11/16 10:33:27;;;;;;;19.10;9.70;;;;;;;7.65;100.00;98670.56;5134693;27;20622;-61
2021/11/16 10:35:57;;;;;;;15.67;9.03;;;;;;;7.67;100.00;98673.13;5134622;27;20293;-61
2021/11/16 10:38:27;;;;;;;16.37;9.80;;;;;;;7.70;100.00;98678.22;5132892;27;20201;-61
2021/11/16 10:40:55;;;;;;;15.03;9.87;;;;;;;7.67;100.00;98673.13;5132994;27;20212;-61
2021/11/16 10:43:22;;;;;;;16.47;9.37;;;;;;;7.69;99.71;98669.50;5134635;27;20214;-61
2021/11/16 10:45:51;;;;;;;15.67;8.87;;;;;;;7.71;99.99;98674.69;5134521;27;20224;-61
2021/11/16 10:48:22;;;;;;;17.13;8.93;;;;;;;7.70;99.63;98671.22;5134472;27;20361;-61
2021/11/16 10:50:51;;;;;;;16.30;8.50;;;;;;;7.74;100.00;98664.00;5134392;27;20245;-61
2021/11/16 10:53:20;;;;;;;15.70;9.30;;;;;;;7.79;100.00;98672.53;5132995;27;20216;-61
2021/11/16 10:55:49;;;;;;;16.03;9.20;;;;;;;7.88;100.00;98672.06;5124182;27;20231;-60
2021/11/16 10:58:18;;;;;;;15.70;8.80;;;;;;;7.87;100.00;98671.22;5133965;27;20209;-61
2021/11/16 11:00:49;;;;;;;13.90;8.43;;;;;;;7.88;99.92;98664.16;5133853;27;20215;-62
2021/11/16 11:03:28;;;;;;;12.50;7.40;;;;;;;7.89;99.49;98668.53;5131007;27;20219;-61
2021/11/16 11:05:56;;;;;;;15.50;8.80;;;;;;;7.94;100.00;98671.75;5132569;27;20217;-61
2021/11/16 11:08:31;;;;;;;15.47;8.77;;;;;;;7.89;99.38;98668.53;5133785;27;20338;-61
2021/11/16 11:10:59;;;;;;;13.03;7.77;;;;;;;7.87;98.81;98665.97;5133603;27;20712;-61
2021/11/16 11:13:27;;;;;;;13.30;8.23;;;;;;;7.85;97.87;98656.44;5133761;27;20209;-61
2021/11/16 11:15:54;;;;;;;12.47;7.17;;;;;;;7.83;98.05;98653.88;5133239;27;20214;-61
2021/11/16 11:18:36;;;;;;;14.37;8.17;;;;;;;7.82;97.94;98662.72;5132861;27;20577;-61
2021/11/16 11:21:05;;;;;;;10.10;6.37;;;;;;;7.83;97.87;98653.03;5131123;27;20210;-61
2021/11/16 11:23:37;;;;;;;9.83;6.10;;;;;;;7.81;97.17;98665.41;5133098;27;20220;-61
2021/11/16 11:26:37;;;;;;;8.67;5.63;;;;;;;7.79;96.66;98656.75;5133683;27;20300;-60
2021/11/16 11:29:18;;;;;;;8.90;5.70;;;;;;;7.80;97.06;98661.06;5132369;27;20245;-60
2021/11/16 11:31:47;;;;;;;7.57;5.43;;;;;;;7.83;97.15;98653.03;5133270;27;20661;-60
2021/11/16 11:34:13;;;;;;;8.37;5.77;;;;;;;7.83;96.37;98653.88;5131785;27;20224;-63
2021/11/16 11:36:41;;;;;;;9.93;6.70;;;;;;;7.82;96.19;98646.06;5133257;27;20286;-61
2021/11/16 11:39:20;;;;;;;9.07;5.90;;;;;;;7.83;95.59;98653.03;5133441;27;20236;-60
2021/11/16 11:41:51;;;;;;;8.80;5.60;;;;;;;7.81;94.65;98649.63;5129407;27;20209;-61